• Join FlightAware (Why Join?)
  • Login
  • US Flag 
06:32PM EDT


 

Airport Tracker/Info


-or-


 

Live Flight TrackerFlight Track Log ✈ DAL3626 ✈ 06-May-2013 ✈ KMSP - KSDF

Flight Track Log - Related Links

Times and Time Zones

All times are in EDT time to prevent confusion due to time zone crossing. See the DAL3626 flight status page for this flight to view local times or setup timezone preferences in your user account.

Time Position Orientation Groundspeed Altitude Reporting Facility
EDT Latitude Longitude Course Direction KTS MPH feet Rate Location/Type
11:30AM 44.9000 -93.2500 133° Southeast 165 190 1,900  Level Minneapolis TRACON
11:32AM 44.7980 -93.1185 172° South  Level Estimated
11:33AM 44.5619 -93.0935 136° Southeast  Level FlightAware Approximate
11:33AM 44.8006 -93.3786 139° Southeast 271 312 8,100  Level Minneapolis Center
11:34AM 44.4823 -92.9875 136° Southeast  Level FlightAware Approximate
11:35AM 44.3949 -92.8949 144° Southeast  Level FlightAware Approximate
11:35AM 44.7431 -93.3078 139° Southeast 279 321 10,500  Level Minneapolis Center
11:36AM 44.3182 -92.7856 133° Southeast  Level FlightAware Approximate
11:37AM 44.5781 -93.1078 139° Southeast 345 397 14,200  Level Minneapolis Center
11:38AM 44.5019 -93.0158 139° Southeast 362 417 15,700 1,440 Climbing Minneapolis Center
11:39AM 44.2529 -92.4272 139° Southeast  Level Estimated
11:39AM 44.4253 -92.9228 139° Southeast 367 422 17,200  Level Minneapolis Center
11:40AM 44.3294 -92.8078 139° Southeast 379 436 18,200 1,200 Climbing Minneapolis Center
11:41AM 44.2503 -92.7083 138° Southeast 384 442 19,700 1,320 Climbing Minneapolis Center
11:42AM 44.1697 -92.6122 139° Southeast 383 441 21,000 1,200 Climbing Minneapolis Center
11:43AM 44.0911 -92.5136 138° Southeast 382 440 22,300 1,020 Climbing Minneapolis Center
11:45AM 43.9311 -92.3200 139° Southeast 383 441 24,300 1,020 Climbing Minneapolis Center
11:46AM 43.8347 -92.2028 139° Southeast 386 444 25,500 900 Climbing Minneapolis Center
11:48AM 43.7061 -92.0494 139° Southeast 385 443 26,900 780 Climbing Chicago Center
11:48AM 43.6750 -92.0064 135° Southeast 386 444 27,200 780 Climbing Minneapolis Center
11:49AM 43.5936 -91.9108 140° Southeast 386 444 28,000 660 Climbing Minneapolis Center
11:50AM 43.5133 -91.8144 139° Southeast 385 443 28,600 300 Climbing Minneapolis Center
11:52AM 43.3286 -91.5947 139° Southeast 404 465 29,000 120 Climbing Minneapolis Center
11:53AM 43.2383 -91.4942 141° Southeast 415 478 29,000  Level Minneapolis Center
11:54AM 43.1508 -91.3883 139° Southeast 419 482 29,000  Level Minneapolis Center
11:56AM 42.9733 -91.1728 138° Southeast 426 490 29,000  Level Minneapolis Center
11:57AM 42.8844 -91.0644 138° Southeast 428 493 29,000  Level Minneapolis Center
11:58AM 42.8147 -90.9811 139° Southeast 424 488 29,000  Level Chicago Center
11:59AM 42.7253 -90.8742 139° Southeast 427 491 29,000  Level Chicago Center
12:00PM 42.6361 -90.7683 139° Southeast 428 493 29,000  Level Chicago Center
12:01PM 42.5475 -90.6625 139° Southeast 427 491 29,000  Level Chicago Center
12:02PM 42.4589 -90.5583 139° Southeast 425 489 29,000  Level Chicago Center
12:03PM 42.3517 -90.4308 139° Southeast 429 494 29,000  Level Chicago Center
12:04PM 42.2631 -90.3253 139° Southeast 429 494 29,000  Level Chicago Center
12:05PM 42.1733 -90.2214 139° Southeast 429 494 29,000  Level Chicago Center
12:06PM 42.0839 -90.1167 139° Southeast 431 496 29,000  Level Chicago Center
12:08PM 41.9028 -89.9083 139° Southeast 431 496 29,000  Level Chicago Center
12:09PM 41.7947 -89.7819 139° Southeast 431 496 29,000  Level Chicago Center
12:10PM 41.7169 -89.6931 140° Southeast 432 497 29,000  Level Chicago Center
12:12PM 41.6239 -89.5881 140° Southeast  Level FlightAware Approximate
12:12PM 41.5147 -89.4603 140° Southeast 436 502 29,000  Level Chicago Center
12:13PM 41.4211 -89.3553 140° Southeast 437 503 29,000  Level Chicago Center
12:14PM 41.3283 -89.2489 139° Southeast 438 504 29,000  Level Chicago Center
12:15PM 41.2269 -89.1356 140° Southeast 440 506 29,000  Level Chicago Center
12:17PM 41.1478 -89.0403 138° Southeast  Level FlightAware Approximate
12:19PM 40.9483 -88.8228 140° Southeast 442 509 29,000  Level Chicago Center
12:20PM 40.8361 -88.6989 140° Southeast 441 507 29,000  Level Chicago Center
12:21PM 40.7433 -88.5956 140° Southeast 440 506 29,000  Level Chicago Center
12:22PM 40.6503 -88.4947 141° Southeast 439 505 29,000 -780 Level Chicago Center
12:24PM 40.5801 -88.4230 140° Southeast  Level FlightAware Approximate
12:24PM 40.4683 -88.2925 140° Southeast 427 491 26,700  Level Chicago Center
12:26PM 40.2472 -88.0586 141° Southeast 412 474 25,000 -600 Descending Indianapolis Center
12:27PM 40.1842 -87.9856 138° Southeast 404 465 25,000  Level Chicago Center
12:29PM 40.0072 -87.7964 141° Southeast 412 474 25,000  Level Chicago Center
12:29PM 39.9714 -87.7592 141° Southeast 409 471 25,000 -360 Level Indianapolis Center
12:31PM 39.7942 -87.5725 141° Southeast 412 474 24,200 -660 Descending Indianapolis Center
12:32PM 39.7119 -87.4844 141° Southeast 394 453 23,100 -1,200 Descending Indianapolis Center
12:34PM 39.5644 -87.3286 141° Southeast 386 444 21,000 -1,080 Descending Chicago Center
12:34PM 39.5322 -87.2950 141° Southeast 379 436 21,000  Level Indianapolis Center
12:37PM 39.3411 -87.1847 156° South 389 448 21,000  Level Indianapolis Center
12:38PM 39.2383 -87.1411 162° South 391 450 21,000  Level Indianapolis Center
12:39PM 39.1208 -87.0911 162° South 388 447 21,000  Level Indianapolis Center
12:40PM 39.0183 -87.0467 161° South 386 444 21,000  Level Indianapolis Center
12:41PM 38.9161 -87.0028 162° South 384 442 21,000  Level Indianapolis Center
12:42PM 38.8136 -86.9597 162° South 385 443 21,000 -60 Level Indianapolis Center
12:43PM 38.7122 -86.9150 161° South 383 441 20,900 -1,320 Descending Indianapolis Center
12:45PM 38.5306 -86.8368 161° South  Level FlightAware Approximate
12:46PM 38.4169 -86.7908 101° East 358 412 15,700  Level Indianapolis Center
12:47PM 38.3217 -86.7506 162° South 354 407 14,000 -1,620 Descending Indianapolis Center
12:49PM 38.2500 -86.5667 116° Southeast 316 364 11,000 -1,500 Descending Louisville TRACON
12:50PM 38.2703 -86.4700 75° East 280 322 9,500 -1,320 Descending Indianapolis Center
12:52PM 38.1805 -86.1730 101° East  Level FlightAware Approximate
12:53PM 38.1940 -86.2611 101° East  Level FlightAware Approximate
12:54PM 38.3292 -86.1036 293° West 246 283 4,000  Level Indianapolis Center
12:56PM 38.2548 -85.9271 118° Southeast  Level Estimated
12:56PM 38.3667 -85.9167 118° Southeast 240 276 3,300  Level Louisville TRACON
12:57PM 38.3731 -85.8536 83° East 240 276 3,000 -180 Descending Indianapolis Center
12:59PM 38.2950 -85.7681 139° Southeast 206 237 2,800 -120 Descending Indianapolis Center
01:00PM 38.1667 -85.7333 293° West  Level FlightAware Approximate